createdAt,value
2023-07-17T00:02:14.916Z,28.70
2023-07-17T00:04:49.323Z,29.33
2023-07-17T00:07:19.193Z,32.60
2023-07-17T00:09:47.536Z,31.20
2023-07-17T00:12:21.137Z,34.08
2023-07-17T00:14:54.967Z,20.98
2023-07-17T00:17:22.220Z,27.90
2023-07-17T00:20:03.018Z,29.92
2023-07-17T00:22:32.827Z,27.85
2023-07-17T00:25:00.727Z,30.73
2023-07-17T00:27:34.048Z,26.48
2023-07-17T00:30:08.064Z,28.75
2023-07-17T00:32:48.145Z,25.65
2023-07-17T00:35:15.408Z,28.77
2023-07-17T00:37:43.409Z,31.83
2023-07-17T00:40:17.183Z,30.85
2023-07-17T00:42:44.415Z,39.95
2023-07-17T00:45:11.642Z,33.80
2023-07-17T00:47:53.129Z,29.48
2023-07-17T00:50:20.425Z,32.97
2023-07-17T00:52:54.180Z,29.33
2023-07-17T00:55:21.507Z,34.92
2023-07-17T00:57:49.754Z,29.85
2023-07-17T01:00:24.089Z,29.92
2023-07-17T01:02:54.460Z,29.35
2023-07-17T01:05:28.306Z,36.50
2023-07-17T01:07:56.717Z,33.53
2023-07-17T01:10:24.612Z,30.10
2023-07-17T01:12:58.050Z,35.45
2023-07-17T01:15:25.288Z,27.42
2023-07-17T01:17:59.338Z,24.42
2023-07-17T01:20:26.629Z,32.55
2023-07-17T01:23:08.249Z,27.08
2023-07-17T01:25:35.619Z,21.23
2023-07-17T01:28:02.786Z,45.22
2023-07-17T01:30:36.233Z,32.53
2023-07-17T01:33:03.950Z,35.40
2023-07-17T01:35:38.140Z,37.47
2023-07-17T01:38:05.342Z,25.52
2023-07-17T01:40:32.544Z,33.75
2023-07-17T01:43:06.125Z,35.08
2023-07-17T01:45:33.325Z,33.40
2023-07-17T01:48:07.346Z,32.28
2023-07-17T01:50:34.594Z,29.77
2023-07-17T01:53:01.746Z,29.35
2023-07-17T01:55:35.130Z,36.45
2023-07-17T01:58:02.389Z,31.25
2023-07-17T02:00:29.682Z,26.73
2023-07-17T02:03:03.211Z,40.03
2023-07-17T02:05:30.554Z,38.63
2023-07-17T02:08:04.121Z,29.60
2023-07-17T02:10:31.584Z,27.63
2023-07-17T02:12:58.709Z,38.50
2023-07-17T02:15:33.093Z,33.22
2023-07-17T02:18:00.331Z,29.42
2023-07-17T02:20:34.232Z,32.83
2023-07-17T02:23:01.482Z,31.98
2023-07-17T02:25:29.506Z,38.58
2023-07-17T02:28:04.177Z,37.20
2023-07-17T02:30:52.023Z,30.77
2023-07-17T02:33:26.263Z,38.22
2023-07-17T02:35:53.539Z,27.08
2023-07-17T02:38:20.687Z,36.53
2023-07-17T02:40:55.341Z,31.58
2023-07-17T02:43:22.643Z,39.45
2023-07-17T02:45:50.025Z,30.83
2023-07-17T02:48:24.233Z,34.00
2023-07-17T02:50:52.160Z,40.13
2023-07-17T02:53:26.199Z,50.22
2023-07-17T02:55:53.518Z,40.85
2023-07-17T02:58:22.631Z,39.00
2023-07-17T03:00:56.131Z,35.47
2023-07-17T03:03:23.523Z,36.05
2023-07-17T03:05:57.050Z,43.88
2023-07-17T03:08:31.154Z,39.67
2023-07-17T03:11:05.022Z,51.20
2023-07-17T03:13:39.138Z,32.70
2023-07-17T03:16:13.068Z,41.38
2023-07-17T03:18:47.156Z,43.15
2023-07-17T03:21:14.345Z,45.55
2023-07-17T03:23:41.579Z,45.47
2023-07-17T03:26:15.162Z,52.00
2023-07-17T03:28:42.380Z,43.88
2023-07-17T03:31:22.337Z,39.97
2023-07-17T03:33:49.694Z,42.33
2023-07-17T03:36:17.098Z,41.17
2023-07-17T03:38:51.166Z,34.60
2023-07-17T03:41:21.486Z,35.50
2023-07-17T03:43:55.172Z,41.83
2023-07-17T03:46:22.427Z,42.25
2023-07-17T03:48:49.557Z,34.78
2023-07-17T03:51:23.307Z,37.63
2023-07-17T03:53:51.645Z,33.47
2023-07-17T03:56:18.793Z,43.65
2023-07-17T03:58:55.169Z,46.47
2023-07-17T04:01:22.502Z,40.63
2023-07-17T04:03:56.388Z,49.15
2023-07-17T04:06:23.782Z,37.78
2023-07-17T04:08:50.938Z,41.55
2023-07-17T04:11:25.216Z,39.30
2023-07-17T04:13:53.599Z,32.08
2023-07-17T04:16:22.065Z,38.17
2023-07-17T04:18:56.266Z,44.08
2023-07-17T04:21:23.507Z,31.00
2023-07-17T04:23:59.360Z,51.22
2023-07-17T04:26:26.599Z,33.42
2023-07-17T04:28:54.100Z,42.17
2023-07-17T04:31:35.444Z,42.28
2023-07-17T04:34:02.740Z,42.97
2023-07-17T04:36:36.148Z,43.88
2023-07-17T04:39:06.109Z,36.83
2023-07-17T04:41:33.417Z,50.33
2023-07-17T04:44:07.239Z,38.42
2023-07-17T04:46:35.892Z,44.03
2023-07-17T04:49:10.234Z,44.50
2023-07-17T04:51:37.420Z,38.90
2023-07-17T04:54:04.886Z,45.70
2023-07-17T04:59:06.798Z,54.08
2023-07-17T05:04:07.858Z,38.35
2023-07-17T05:09:09.302Z,37.05
2023-07-17T05:11:36.769Z,62.97
2023-07-17T05:14:10.124Z,46.80
2023-07-17T05:16:37.636Z,54.88
2023-07-17T05:21:38.104Z,53.65
2023-07-17T05:24:05.467Z,52.83
2023-07-17T05:26:32.657Z,48.53
2023-07-17T05:29:06.108Z,58.30
2023-07-17T05:31:41.279Z,57.72
2023-07-17T05:34:15.120Z,63.33
2023-07-17T05:36:42.404Z,53.90
2023-07-17T05:39:09.615Z,52.47
2023-07-17T05:41:44.257Z,57.72
2023-07-17T05:44:11.529Z,63.72
2023-07-17T05:46:38.688Z,42.45
2023-07-17T05:49:12.172Z,62.97
2023-07-17T05:51:39.468Z,70.43
2023-07-17T05:54:14.307Z,58.33
2023-07-17T05:56:41.678Z,52.30
2023-07-17T05:59:08.860Z,53.88
2023-07-17T06:01:42.296Z,47.53
2023-07-17T06:04:09.722Z,57.13
2023-07-17T06:09:10.436Z,54.28
2023-07-17T06:11:37.577Z,47.92
2023-07-17T06:14:11.138Z,55.50
2023-07-17T06:16:38.422Z,46.55
2023-07-17T06:19:12.135Z,43.03
2023-07-17T06:21:39.430Z,51.10
2023-07-17T06:24:10.005Z,44.85
2023-07-17T06:26:44.205Z,43.22
2023-07-17T06:29:12.118Z,39.58
2023-07-17T06:31:54.429Z,51.60
2023-07-17T06:34:21.781Z,40.35
2023-07-17T06:36:50.221Z,53.90
2023-07-17T06:39:24.314Z,49.53
2023-07-17T06:41:51.663Z,39.58
2023-07-17T06:44:18.817Z,31.63
2023-07-17T06:46:52.423Z,37.50
2023-07-17T06:49:21.742Z,37.35
2023-07-17T06:51:57.399Z,43.90
2023-07-17T06:54:24.581Z,42.42
2023-07-17T06:56:51.783Z,35.35
2023-07-17T06:59:25.215Z,35.97
2023-07-17T07:01:52.547Z,36.92
2023-07-17T07:04:26.183Z,33.60
2023-07-17T07:06:53.442Z,31.42
2023-07-17T07:09:20.579Z,30.92
2023-07-17T07:11:54.133Z,29.77
2023-07-17T07:14:21.401Z,33.90
2023-07-17T07:16:55.266Z,27.70
2023-07-17T07:19:22.566Z,28.83
2023-07-17T07:21:49.698Z,25.27
2023-07-17T07:24:23.299Z,30.42
2023-07-17T07:26:50.491Z,29.73
2023-07-17T07:29:17.722Z,35.70
2023-07-17T07:31:57.290Z,28.55
2023-07-17T07:34:31.282Z,24.27
2023-07-17T07:36:58.555Z,26.85
2023-07-17T07:39:25.856Z,27.77
2023-07-17T07:41:59.145Z,26.58
2023-07-17T07:44:26.491Z,23.67
2023-07-17T07:47:00.208Z,21.30
2023-07-17T07:49:27.516Z,30.48
2023-07-17T07:51:54.664Z,21.10
2023-07-17T07:54:28.260Z,20.48
2023-07-17T07:56:55.598Z,22.85
2023-07-17T07:59:29.536Z,21.75
2023-07-17T08:01:57.129Z,20.67
2023-07-17T08:04:24.417Z,19.80
2023-07-17T08:06:58.251Z,21.67
2023-07-17T08:09:26.284Z,21.08
2023-07-17T08:12:03.413Z,24.50
2023-07-17T08:14:30.641Z,22.20
2023-07-17T08:16:57.843Z,22.65
2023-07-17T08:19:31.376Z,24.70
2023-07-17T08:21:58.662Z,20.52
2023-07-17T08:24:32.384Z,21.35
2023-07-17T08:29:41.253Z,22.90
2023-07-17T08:32:22.488Z,30.65
2023-07-17T08:34:49.703Z,22.95
2023-07-17T08:37:17.075Z,20.85
2023-07-17T08:42:18.675Z,17.42
2023-07-17T08:44:48.495Z,28.20
2023-07-17T08:47:42.348Z,23.55
2023-07-17T08:50:37.256Z,20.42
2023-07-17T08:53:31.350Z,14.40
2023-07-17T08:56:25.199Z,18.15
2023-07-17T08:59:19.250Z,22.20
2023-07-17T09:02:13.212Z,10.68
2023-07-17T09:05:07.354Z,20.02
2023-07-17T09:07:50.219Z,16.23
2023-07-17T09:10:27.518Z,15.30
2023-07-17T09:12:59.440Z,17.63
2023-07-17T09:15:35.335Z,22.70
2023-07-17T09:18:09.425Z,21.17
2023-07-17T09:20:36.906Z,15.65
2023-07-17T09:25:39.352Z,15.40
2023-07-17T09:28:06.625Z,22.60
2023-07-17T09:30:47.459Z,19.73
2023-07-17T09:33:26.118Z,22.48
2023-07-17T09:36:06.412Z,19.83
2023-07-17T09:38:34.070Z,20.77
2023-07-17T09:41:01.257Z,21.33
2023-07-17T09:43:39.357Z,23.40
2023-07-17T09:48:40.354Z,19.55
2023-07-17T09:51:07.484Z,17.20
2023-07-17T09:53:34.836Z,15.82
2023-07-17T09:56:09.340Z,16.55
2023-07-17T09:58:37.000Z,19.38
2023-07-17T10:01:11.428Z,23.42
2023-07-17T10:03:38.751Z,18.17
2023-07-17T10:06:06.293Z,16.65
2023-07-17T10:11:08.046Z,17.75
2023-07-17T10:13:43.429Z,21.02
2023-07-17T10:16:10.925Z,20.42
2023-07-17T10:21:14.581Z,25.88
2023-07-17T10:23:43.483Z,29.10
2023-07-17T10:26:11.183Z,32.05
2023-07-17T10:28:45.319Z,24.00
2023-07-17T10:31:33.450Z,25.00
2023-07-17T10:34:17.330Z,19.98
2023-07-17T10:36:52.222Z,35.60
2023-07-17T10:39:27.409Z,20.85
2023-07-17T10:41:54.633Z,23.27
2023-07-17T10:44:22.146Z,17.30
2023-07-17T10:49:23.624Z,13.15
2023-07-17T10:51:58.406Z,18.83
2023-07-17T10:54:27.682Z,17.77
2023-07-17T10:56:54.884Z,13.77
2023-07-17T10:59:29.444Z,20.33
2023-07-17T11:02:02.026Z,14.60
2023-07-17T11:04:35.390Z,9.88
2023-07-17T11:07:09.470Z,18.38
2023-07-17T11:09:43.334Z,10.32
2023-07-17T11:12:10.534Z,13.25
2023-07-17T11:14:37.798Z,17.27
2023-07-17T11:17:11.479Z,10.30
2023-07-17T11:19:38.735Z,8.57
2023-07-17T11:22:06.041Z,8.43
2023-07-17T11:24:40.328Z,10.43
2023-07-17T11:27:15.300Z,13.32
2023-07-17T11:29:58.449Z,8.00
2023-07-17T11:32:32.306Z,11.15
2023-07-17T11:35:07.491Z,12.68
2023-07-17T11:37:35.898Z,9.85
2023-07-17T11:40:16.419Z,15.55
2023-07-17T11:42:56.843Z,10.05
2023-07-17T11:45:35.852Z,10.25
2023-07-17T11:48:03.898Z,9.82
2023-07-17T11:50:31.159Z,11.32
2023-07-17T11:53:14.430Z,14.85
2023-07-17T11:55:49.275Z,10.30
2023-07-17T11:58:20.129Z,16.17
2023-07-17T12:00:48.746Z,16.38
2023-07-17T12:03:22.464Z,16.33
2023-07-17T12:05:49.753Z,15.10
2023-07-17T12:08:23.473Z,13.27
2023-07-17T12:10:51.564Z,16.52
2023-07-17T12:13:18.744Z,19.42
2023-07-17T12:15:52.423Z,12.45
2023-07-17T12:18:20.203Z,24.60
2023-07-17T12:20:54.399Z,14.50
2023-07-17T12:23:22.870Z,16.85
2023-07-17T12:25:50.080Z,22.25
2023-07-17T12:28:24.464Z,17.17
2023-07-17T12:30:58.769Z,15.13
2023-07-17T12:33:32.502Z,14.40
2023-07-17T12:35:59.714Z,12.35
2023-07-17T12:38:26.847Z,11.88
2023-07-17T12:41:00.467Z,12.32
2023-07-17T12:43:27.746Z,11.10
2023-07-17T12:45:55.004Z,11.88
2023-07-17T12:48:28.438Z,14.10
2023-07-17T12:50:59.047Z,9.55
2023-07-17T12:53:33.402Z,12.38
2023-07-17T12:56:16.112Z,14.25
2023-07-17T12:58:50.389Z,10.50
2023-07-17T13:01:17.955Z,8.15
2023-07-17T13:03:46.203Z,10.05
2023-07-17T13:06:20.613Z,7.20
2023-07-17T13:08:48.518Z,7.55
2023-07-17T13:11:15.916Z,13.73
2023-07-17T13:16:16.704Z,14.23
2023-07-17T13:18:43.828Z,6.97
2023-07-17T13:21:18.685Z,11.70
2023-07-17T13:23:46.127Z,6.95
2023-07-17T13:26:20.369Z,14.18
2023-07-17T13:28:47.655Z,11.98
2023-07-17T13:31:34.439Z,10.30
2023-07-17T13:34:01.811Z,10.00
2023-07-17T13:36:29.316Z,9.38
2023-07-17T13:41:41.595Z,15.73
2023-07-17T13:46:43.460Z,10.45
2023-07-17T13:49:13.668Z,9.38
2023-07-17T13:51:47.385Z,14.85
2023-07-17T13:54:19.963Z,13.65
2023-07-17T13:59:24.563Z,10.88
2023-07-17T14:01:51.784Z,12.93
2023-07-17T14:04:25.584Z,13.57
2023-07-17T14:06:52.897Z,11.85
2023-07-17T14:09:20.054Z,15.27
2023-07-17T14:11:53.684Z,10.80
2023-07-17T14:14:21.316Z,13.68
2023-07-17T14:16:55.470Z,17.33
2023-07-17T14:19:23.958Z,10.85
2023-07-17T14:21:51.223Z,13.52
2023-07-17T14:24:25.598Z,20.00
2023-07-17T14:26:52.941Z,10.77
2023-07-17T14:29:20.063Z,11.90
2023-07-17T14:31:53.417Z,8.85
2023-07-17T14:34:25.679Z,10.13
2023-07-17T14:36:59.432Z,11.48
2023-07-17T14:39:28.407Z,9.50
2023-07-17T14:42:22.629Z,6.40
2023-07-17T14:45:16.343Z,9.65
2023-07-17T14:48:10.587Z,9.60
2023-07-17T14:50:58.168Z,11.88
2023-07-17T14:53:52.386Z,9.63
2023-07-17T14:56:46.336Z,13.38
2023-07-17T14:59:40.489Z,17.60
2023-07-17T15:02:34.385Z,14.45
2023-07-17T15:05:21.629Z,13.05
2023-07-17T15:08:15.374Z,11.70
2023-07-17T15:11:02.634Z,12.65
2023-07-17T15:13:56.463Z,14.65
2023-07-17T15:16:43.646Z,13.80
2023-07-17T15:19:37.328Z,10.73
2023-07-17T15:22:24.810Z,14.38
2023-07-17T15:25:18.397Z,10.68
2023-07-17T15:28:05.849Z,8.27
2023-07-17T15:31:05.370Z,10.45
2023-07-17T15:33:59.513Z,11.52
2023-07-17T15:36:53.349Z,12.20
2023-07-17T15:39:47.425Z,7.07
2023-07-17T15:42:41.341Z,12.63
2023-07-17T15:45:45.439Z,8.73
2023-07-17T15:48:54.362Z,12.30
2023-07-17T15:51:54.419Z,11.98
2023-07-17T15:54:41.658Z,7.50
2023-07-17T15:57:35.450Z,14.40
2023-07-17T16:00:23.018Z,13.10
2023-07-17T16:03:16.954Z,10.23
2023-07-17T16:06:04.170Z,12.63
2023-07-17T16:08:57.673Z,11.25
2023-07-17T16:11:44.843Z,12.52
2023-07-17T16:14:38.478Z,10.00
2023-07-17T16:17:25.965Z,11.10
2023-07-17T16:20:19.606Z,10.57
2023-07-17T16:23:06.890Z,9.40
2023-07-17T16:26:00.477Z,13.73
2023-07-17T16:28:47.699Z,11.30
2023-07-17T16:31:41.692Z,9.10
2023-07-17T16:34:35.415Z,10.50
2023-07-17T16:37:29.507Z,10.93
2023-07-17T16:40:16.743Z,14.07
2023-07-17T16:43:10.873Z,10.60
2023-07-17T16:45:58.162Z,15.45
2023-07-17T16:48:53.459Z,10.00
2023-07-17T16:51:47.405Z,12.07
2023-07-17T16:54:41.458Z,16.70
2023-07-17T16:57:35.357Z,10.00
2023-07-17T17:00:22.659Z,17.45
2023-07-17T17:03:16.636Z,15.43
2023-07-17T17:06:03.931Z,12.43
2023-07-17T17:08:57.394Z,11.10
2023-07-17T17:11:51.548Z,13.63
2023-07-17T17:14:45.401Z,12.35
2023-07-17T17:17:39.556Z,17.10
2023-07-17T17:20:33.407Z,17.35
2023-07-17T17:23:27.460Z,22.13
2023-07-17T17:26:21.698Z,19.67
2023-07-17T17:29:15.592Z,11.65
2023-07-17T17:32:09.305Z,18.30
2023-07-17T17:35:03.508Z,20.50
2023-07-17T17:37:51.742Z,10.93
2023-07-17T17:40:45.543Z,14.82
2023-07-17T17:43:32.642Z,20.55
2023-07-17T17:46:26.629Z,13.60
2023-07-17T17:49:13.736Z,13.05
2023-07-17T17:52:07.629Z,12.85
2023-07-17T17:54:54.726Z,16.23
2023-07-17T17:57:48.525Z,16.92
2023-07-17T18:00:35.784Z,12.77
2023-07-17T18:03:29.665Z,12.98
2023-07-17T18:06:16.847Z,15.43
2023-07-17T18:09:10.640Z,14.93
2023-07-17T18:11:57.806Z,18.15
2023-07-17T18:14:51.478Z,18.00
2023-07-17T18:17:25.450Z,13.38
2023-07-17T18:19:59.494Z,12.40
2023-07-17T18:22:26.752Z,13.63
2023-07-17T18:25:00.557Z,16.13
2023-07-17T18:27:27.777Z,17.70
2023-07-17T18:29:54.926Z,17.15
2023-07-17T18:32:28.730Z,20.27
2023-07-17T18:34:56.015Z,18.08
2023-07-17T18:37:23.230Z,14.55
2023-07-17T18:39:56.496Z,12.45
2023-07-17T18:42:23.702Z,20.60
2023-07-17T18:44:57.624Z,19.10
2023-07-17T18:47:24.871Z,13.45
2023-07-17T18:49:51.993Z,19.30
2023-07-17T18:52:25.578Z,15.55
2023-07-17T18:54:52.838Z,17.13
2023-07-17T18:57:26.614Z,14.43
2023-07-17T18:59:53.819Z,17.33
2023-07-17T19:02:21.013Z,18.42
2023-07-17T19:04:54.590Z,19.92
2023-07-17T19:07:21.879Z,20.23
2023-07-17T19:09:49.004Z,20.83
2023-07-17T19:12:22.701Z,24.33
2023-07-17T19:14:50.035Z,21.25
2023-07-17T19:17:17.654Z,26.33
2023-07-17T19:22:20.071Z,26.02
2023-07-17T19:24:47.878Z,18.73
2023-07-17T19:27:21.507Z,19.80
2023-07-17T19:29:48.692Z,16.98
2023-07-17T19:32:31.756Z,20.40
2023-07-17T19:35:05.601Z,16.92
2023-07-17T19:37:39.736Z,16.40
2023-07-17T19:40:08.039Z,17.52
2023-07-17T19:42:35.187Z,25.05
2023-07-17T19:45:08.522Z,24.10
2023-07-17T19:47:35.854Z,26.27
2023-07-17T19:50:09.687Z,24.38
2023-07-17T19:52:37.020Z,21.40
2023-07-17T19:55:04.235Z,24.52
2023-07-17T19:57:38.559Z,19.30
2023-07-17T20:00:09.451Z,14.48
2023-07-17T20:02:43.753Z,13.13
2023-07-17T20:05:10.994Z,16.73
2023-07-17T20:07:38.203Z,13.63
2023-07-17T20:10:12.548Z,19.85
2023-07-17T20:12:46.526Z,19.63
2023-07-17T20:15:20.707Z,12.75
2023-07-17T20:17:49.051Z,14.63
2023-07-17T20:20:16.323Z,13.50
2023-07-17T20:22:50.660Z,16.92
2023-07-17T20:25:17.949Z,20.92
2023-07-17T20:27:52.645Z,17.40
2023-07-17T20:30:20.078Z,18.48
2023-07-17T20:33:00.605Z,17.20
2023-07-17T20:35:36.476Z,20.08
2023-07-17T20:38:10.677Z,25.80
2023-07-17T20:40:39.020Z,17.55
2023-07-17T20:43:06.176Z,20.20
2023-07-17T20:45:39.539Z,25.98
2023-07-17T20:48:06.911Z,22.20
2023-07-17T20:50:40.682Z,23.45
2023-07-17T20:53:07.980Z,22.15
2023-07-17T20:55:35.358Z,15.10
2023-07-17T20:58:09.644Z,20.63
2023-07-17T21:00:36.914Z,20.35
2023-07-17T21:03:11.717Z,16.33
2023-07-17T21:05:42.376Z,17.40
2023-07-17T21:08:10.563Z,20.83
2023-07-17T21:10:44.620Z,18.25
2023-07-17T21:13:11.813Z,29.92
2023-07-17T21:15:45.613Z,22.98
2023-07-17T21:18:12.927Z,25.40
2023-07-17T21:20:40.052Z,22.20
2023-07-17T21:23:13.799Z,25.50
2023-07-17T21:25:41.111Z,19.20
2023-07-17T21:28:08.326Z,22.13
2023-07-17T21:30:41.616Z,19.83
2023-07-17T21:33:29.499Z,22.00
2023-07-17T21:36:03.803Z,18.17
2023-07-17T21:38:31.125Z,22.15
2023-07-17T21:40:58.335Z,19.38
2023-07-17T21:43:31.572Z,20.45
2023-07-17T21:45:58.835Z,18.15
2023-07-17T21:48:32.602Z,15.23
2023-07-17T21:51:06.538Z,31.75
2023-07-17T21:53:40.612Z,20.95
2023-07-17T21:56:15.666Z,24.83
2023-07-17T21:58:43.012Z,27.48
2023-07-17T22:01:10.269Z,19.27
2023-07-17T22:03:43.647Z,25.63
2023-07-17T22:06:10.827Z,22.25
2023-07-17T22:08:51.806Z,17.73
2023-07-17T22:11:25.649Z,24.40
2023-07-17T22:13:59.943Z,26.63
2023-07-17T22:16:27.207Z,22.83
2023-07-17T22:18:54.488Z,24.92
2023-07-17T22:21:28.684Z,19.35
2023-07-17T22:23:55.897Z,23.17
2023-07-17T22:26:29.727Z,21.88
2023-07-17T22:28:57.049Z,28.42
2023-07-17T22:31:44.722Z,25.08
2023-07-17T22:34:13.030Z,25.08
2023-07-17T22:36:40.164Z,20.70
2023-07-17T22:39:13.682Z,23.90
2023-07-17T22:41:41.767Z,18.30
2023-07-17T22:44:15.796Z,23.15
2023-07-17T22:46:43.766Z,24.40
2023-07-17T22:49:10.942Z,22.33
2023-07-17T22:51:47.629Z,18.95
2023-07-17T22:54:14.960Z,23.48
2023-07-17T22:56:48.624Z,25.60
2023-07-17T22:59:15.880Z,19.48
2023-07-17T23:01:45.220Z,22.48
2023-07-17T23:04:18.686Z,21.42
2023-07-17T23:06:46.357Z,24.65
2023-07-17T23:11:46.982Z,24.02
2023-07-17T23:14:40.603Z,22.60
2023-07-17T23:17:10.649Z,26.00
2023-07-17T23:19:44.703Z,21.48
2023-07-17T23:22:12.051Z,24.88
2023-07-17T23:24:39.175Z,23.55
2023-07-17T23:27:15.632Z,20.42
2023-07-17T23:29:42.825Z,33.38
2023-07-17T23:32:16.758Z,23.58
2023-07-17T23:34:44.061Z,23.45
2023-07-17T23:37:17.768Z,21.77
2023-07-17T23:39:49.815Z,22.23
2023-07-17T23:42:24.746Z,25.17
2023-07-17T23:44:51.981Z,23.63
2023-07-17T23:47:19.248Z,23.08
2023-07-17T23:49:52.892Z,20.80
2023-07-17T23:52:21.432Z,24.60
2023-07-17T23:54:50.612Z,20.02
2023-07-17T23:57:24.720Z,21.95
2023-07-17T23:59:52.412Z,20.05
